sensor_id;sensor_type;location;lat;lon;timestamp;temperature;humidity
19952;DHT22;10137;49.406;19.484;2023-01-15T00:00:58;2.80;99.90
19952;DHT22;10137;49.406;19.484;2023-01-15T00:03:27;2.80;99.90
19952;DHT22;10137;49.406;19.484;2023-01-15T00:05:54;2.70;99.90
19952;DHT22;10137;49.406;19.484;2023-01-15T00:08:21;2.80;99.90
19952;DHT22;10137;49.406;19.484;2023-01-15T00:10:48;2.80;99.90
19952;DHT22;10137;49.406;19.484;2023-01-15T00:13:15;2.80;99.90
19952;DHT22;10137;49.406;19.484;2023-01-15T00:15:43;2.80;99.90
19952;DHT22;10137;49.406;19.484;2023-01-15T00:18:10;2.80;99.90
19952;DHT22;10137;49.406;19.484;2023-01-15T00:20:38;2.80;99.90
19952;DHT22;10137;49.406;19.484;2023-01-15T00:23:05;2.80;99.90
19952;DHT22;10137;49.406;19.484;2023-01-15T00:25:55;2.80;99.90
19952;DHT22;10137;49.406;19.484;2023-01-15T00:28:40;2.90;99.90
19952;DHT22;10137;49.406;19.484;2023-01-15T00:31:07;2.90;99.90
19952;DHT22;10137;49.406;19.484;2023-01-15T00:33:34;2.90;99.90
19952;DHT22;10137;49.406;19.484;2023-01-15T00:36:03;2.90;99.90
19952;DHT22;10137;49.406;19.484;2023-01-15T00:38:30;2.90;99.90
19952;DHT22;10137;49.406;19.484;2023-01-15T00:40:57;2.90;99.90
19952;DHT22;10137;49.406;19.484;2023-01-15T00:43:24;2.90;99.90
19952;DHT22;10137;49.406;19.484;2023-01-15T00:45:51;2.80;99.90
19952;DHT22;10137;49.406;19.484;2023-01-15T00:48:18;2.90;99.90
19952;DHT22;10137;49.406;19.484;2023-01-15T00:50:45;2.90;99.90
19952;DHT22;10137;49.406;19.484;2023-01-15T00:53:14;2.90;99.90
19952;DHT22;10137;49.406;19.484;2023-01-15T00:55:41;2.80;99.90
19952;DHT22;10137;49.406;19.484;2023-01-15T00:58:09;2.80;99.90
19952;DHT22;10137;49.406;19.484;2023-01-15T01:00:36;2.90;99.90
19952;DHT22;10137;49.406;19.484;2023-01-15T01:03:03;2.80;99.90
19952;DHT22;10137;49.406;19.484;2023-01-15T01:05:30;2.80;99.90
19952;DHT22;10137;49.406;19.484;2023-01-15T01:07:57;2.80;99.90
19952;DHT22;10137;49.406;19.484;2023-01-15T01:10:26;2.80;99.90
19952;DHT22;10137;49.406;19.484;2023-01-15T01:12:53;2.80;99.90
19952;DHT22;10137;49.406;19.484;2023-01-15T01:15:21;2.80;99.90
19952;DHT22;10137;49.406;19.484;2023-01-15T01:17:48;2.80;99.90
19952;DHT22;10137;49.406;19.484;2023-01-15T01:20:16;2.80;99.90
19952;DHT22;10137;49.406;19.484;2023-01-15T01:22:43;2.80;99.90
19952;DHT22;10137;49.406;19.484;2023-01-15T01:25:10;2.80;99.90
19952;DHT22;10137;49.406;19.484;2023-01-15T01:27:43;2.80;99.90
19952;DHT22;10137;49.406;19.484;2023-01-15T01:30:11;2.90;99.90
19952;DHT22;10137;49.406;19.484;2023-01-15T01:32:39;2.90;99.90
19952;DHT22;10137;49.406;19.484;2023-01-15T01:35:06;2.80;99.90
19952;DHT22;10137;49.406;19.484;2023-01-15T01:37:33;2.90;99.90
19952;DHT22;10137;49.406;19.484;2023-01-15T01:40:00;2.80;99.90
19952;DHT22;10137;49.406;19.484;2023-01-15T01:42:27;2.90;99.90
19952;DHT22;10137;49.406;19.484;2023-01-15T01:45:10;2.90;99.90
19952;DHT22;10137;49.406;19.484;2023-01-15T01:47:40;2.90;99.90
19952;DHT22;10137;49.406;19.484;2023-01-15T01:50:09;2.90;99.90
19952;DHT22;10137;49.406;19.484;2023-01-15T01:52:41;2.80;99.90
19952;DHT22;10137;49.406;19.484;2023-01-15T01:55:11;2.80;99.90
19952;DHT22;10137;49.406;19.484;2023-01-15T01:57:40;2.90;99.90
19952;DHT22;10137;49.406;19.484;2023-01-15T02:00:10;3.00;99.90
19952;DHT22;10137;49.406;19.484;2023-01-15T02:02:40;3.00;99.90
19952;DHT22;10137;49.406;19.484;2023-01-15T02:05:11;3.00;99.90
19952;DHT22;10137;49.406;19.484;2023-01-15T02:07:40;3.00;99.90
19952;DHT22;10137;49.406;19.484;2023-01-15T02:10:13;3.10;99.90
19952;DHT22;10137;49.406;19.484;2023-01-15T02:12:41;3.20;99.90
19952;DHT22;10137;49.406;19.484;2023-01-15T02:15:15;3.20;99.90
19952;DHT22;10137;49.406;19.484;2023-01-15T02:17:48;3.10;99.90
19952;DHT22;10137;49.406;19.484;2023-01-15T02:20:28;3.00;99.90
19952;DHT22;10137;49.406;19.484;2023-01-15T02:23:10;3.00;99.90
19952;DHT22;10137;49.406;19.484;2023-01-15T02:25:52;3.10;99.90
19952;DHT22;10137;49.406;19.484;2023-01-15T02:28:25;3.10;99.90
19952;DHT22;10137;49.406;19.484;2023-01-15T02:31:00;3.20;99.90
19952;DHT22;10137;49.406;19.484;2023-01-15T02:33:33;3.30;99.90
19952;DHT22;10137;49.406;19.484;2023-01-15T02:36:01;3.20;99.90
19952;DHT22;10137;49.406;19.484;2023-01-15T02:38:38;3.30;99.90
19952;DHT22;10137;49.406;19.484;2023-01-15T02:41:08;3.30;99.90
19952;DHT22;10137;49.406;19.484;2023-01-15T02:43:45;3.20;99.90
19952;DHT22;10137;49.406;19.484;2023-01-15T02:46:14;3.20;99.90
19952;DHT22;10137;49.406;19.484;2023-01-15T02:48:45;3.20;99.90
19952;DHT22;10137;49.406;19.484;2023-01-15T02:51:16;3.20;99.90
19952;DHT22;10137;49.406;19.484;2023-01-15T02:53:47;3.20;99.90
19952;DHT22;10137;49.406;19.484;2023-01-15T02:56:18;3.30;99.90
19952;DHT22;10137;49.406;19.484;2023-01-15T02:58:49;3.20;99.90
19952;DHT22;10137;49.406;19.484;2023-01-15T03:01:20;3.10;99.90
19952;DHT22;10137;49.406;19.484;2023-01-15T03:03:53;3.10;99.90
19952;DHT22;10137;49.406;19.484;2023-01-15T03:06:31;3.10;99.90
19952;DHT22;10137;49.406;19.484;2023-01-15T03:09:01;3.10;99.90
19952;DHT22;10137;49.406;19.484;2023-01-15T03:11:28;3.10;99.90
19952;DHT22;10137;49.406;19.484;2023-01-15T03:14:02;3.10;99.90
19952;DHT22;10137;49.406;19.484;2023-01-15T03:16:33;3.10;99.90
19952;DHT22;10137;49.406;19.484;2023-01-15T03:19:09;3.10;99.90
19952;DHT22;10137;49.406;19.484;2023-01-15T03:21:43;3.20;99.90
19952;DHT22;10137;49.406;19.484;2023-01-15T03:24:14;3.20;99.90
19952;DHT22;10137;49.406;19.484;2023-01-15T03:26:43;3.20;99.90
19952;DHT22;10137;49.406;19.484;2023-01-15T03:29:12;3.20;99.90
19952;DHT22;10137;49.406;19.484;2023-01-15T03:31:40;3.20;99.90
19952;DHT22;10137;49.406;19.484;2023-01-15T03:34:10;3.20;99.90
19952;DHT22;10137;49.406;19.484;2023-01-15T03:36:37;3.20;99.90
19952;DHT22;10137;49.406;19.484;2023-01-15T03:39:04;3.20;99.90
19952;DHT22;10137;49.406;19.484;2023-01-15T03:41:41;3.20;99.90
19952;DHT22;10137;49.406;19.484;2023-01-15T03:44:18;3.20;99.90
19952;DHT22;10137;49.406;19.484;2023-01-15T03:46:57;3.20;99.90
19952;DHT22;10137;49.406;19.484;2023-01-15T03:49:37;3.10;99.90
19952;DHT22;10137;49.406;19.484;2023-01-15T03:52:10;3.20;99.90
19952;DHT22;10137;49.406;19.484;2023-01-15T03:54:46;3.20;99.90
19952;DHT22;10137;49.406;19.484;2023-01-15T03:57:22;3.20;99.90
19952;DHT22;10137;49.406;19.484;2023-01-15T03:59:53;3.20;99.90
19952;DHT22;10137;49.406;19.484;2023-01-15T04:02:22;3.20;99.90
19952;DHT22;10137;49.406;19.484;2023-01-15T04:04:50;3.20;99.90
19952;DHT22;10137;49.406;19.484;2023-01-15T04:07:18;3.30;99.90
19952;DHT22;10137;49.406;19.484;2023-01-15T04:09:46;3.30;99.90
19952;DHT22;10137;49.406;19.484;2023-01-15T04:12:13;3.20;99.90
19952;DHT22;10137;49.406;19.484;2023-01-15T04:14:41;3.10;99.90
19952;DHT22;10137;49.406;19.484;2023-01-15T04:17:09;3.20;99.90
19952;DHT22;10137;49.406;19.484;2023-01-15T04:19:36;3.10;99.90
19952;DHT22;10137;49.406;19.484;2023-01-15T04:22:03;3.20;99.90
19952;DHT22;10137;49.406;19.484;2023-01-15T04:24:30;3.20;99.90
19952;DHT22;10137;49.406;19.484;2023-01-15T04:26:57;3.20;99.90
19952;DHT22;10137;49.406;19.484;2023-01-15T04:29:25;3.10;99.90
19952;DHT22;10137;49.406;19.484;2023-01-15T04:31:52;3.10;99.90
19952;DHT22;10137;49.406;19.484;2023-01-15T04:34:24;3.10;99.90
19952;DHT22;10137;49.406;19.484;2023-01-15T04:36:51;3.10;99.90
19952;DHT22;10137;49.406;19.484;2023-01-15T04:39:18;3.10;99.90
19952;DHT22;10137;49.406;19.484;2023-01-15T04:41:45;3.20;99.90
19952;DHT22;10137;49.406;19.484;2023-01-15T04:44:31;3.10;99.90
19952;DHT22;10137;49.406;19.484;2023-01-15T04:46:58;3.20;99.90
19952;DHT22;10137;49.406;19.484;2023-01-15T04:49:26;3.10;99.90
19952;DHT22;10137;49.406;19.484;2023-01-15T04:51:54;3.20;99.90
19952;DHT22;10137;49.406;19.484;2023-01-15T04:54:21;3.20;99.90
19952;DHT22;10137;49.406;19.484;2023-01-15T04:56:49;3.20;99.90
19952;DHT22;10137;49.406;19.484;2023-01-15T04:59:18;3.20;99.90
19952;DHT22;10137;49.406;19.484;2023-01-15T05:01:45;3.30;99.90
19952;DHT22;10137;49.406;19.484;2023-01-15T05:04:12;3.20;99.90
19952;DHT22;10137;49.406;19.484;2023-01-15T05:06:41;3.20;99.90
19952;DHT22;10137;49.406;19.484;2023-01-15T05:09:08;3.20;99.90
19952;DHT22;10137;49.406;19.484;2023-01-15T05:11:35;3.20;99.90
19952;DHT22;10137;49.406;19.484;2023-01-15T05:14:03;3.20;99.90
19952;DHT22;10137;49.406;19.484;2023-01-15T05:16:30;3.20;99.90
19952;DHT22;10137;49.406;19.484;2023-01-15T05:19:00;3.20;99.90
19952;DHT22;10137;49.406;19.484;2023-01-15T05:21:29;3.30;99.90
19952;DHT22;10137;49.406;19.484;2023-01-15T05:24:00;3.20;99.90
19952;DHT22;10137;49.406;19.484;2023-01-15T05:26:29;3.20;99.90
19952;DHT22;10137;49.406;19.484;2023-01-15T05:28:57;3.20;99.90
19952;DHT22;10137;49.406;19.484;2023-01-15T05:31:25;3.10;99.90
19952;DHT22;10137;49.406;19.484;2023-01-15T05:33:53;3.20;99.90
19952;DHT22;10137;49.406;19.484;2023-01-15T05:36:22;3.20;99.90
19952;DHT22;10137;49.406;19.484;2023-01-15T05:38:50;3.20;99.90
19952;DHT22;10137;49.406;19.484;2023-01-15T05:41:21;3.20;99.90
19952;DHT22;10137;49.406;19.484;2023-01-15T05:44:07;3.20;99.90
19952;DHT22;10137;49.406;19.484;2023-01-15T05:46:36;3.20;99.90
19952;DHT22;10137;49.406;19.484;2023-01-15T05:49:06;3.20;99.90
19952;DHT22;10137;49.406;19.484;2023-01-15T05:51:33;3.30;99.90
19952;DHT22;10137;49.406;19.484;2023-01-15T05:54:00;3.30;99.90
19952;DHT22;10137;49.406;19.484;2023-01-15T05:56:29;3.40;99.90
19952;DHT22;10137;49.406;19.484;2023-01-15T05:58:56;3.40;99.90
19952;DHT22;10137;49.406;19.484;2023-01-15T06:01:22;3.40;99.90
19952;DHT22;10137;49.406;19.484;2023-01-15T06:03:50;3.50;99.90
19952;DHT22;10137;49.406;19.484;2023-01-15T06:06:18;3.50;99.90
19952;DHT22;10137;49.406;19.484;2023-01-15T06:08:45;3.50;99.90
19952;DHT22;10137;49.406;19.484;2023-01-15T06:11:12;3.50;99.90
19952;DHT22;10137;49.406;19.484;2023-01-15T06:13:40;3.50;99.90
19952;DHT22;10137;49.406;19.484;2023-01-15T06:16:08;3.50;99.90
19952;DHT22;10137;49.406;19.484;2023-01-15T06:18:36;3.60;99.90
19952;DHT22;10137;49.406;19.484;2023-01-15T06:21:04;3.60;99.90
19952;DHT22;10137;49.406;19.484;2023-01-15T06:23:31;3.60;99.90
19952;DHT22;10137;49.406;19.484;2023-01-15T06:26:02;3.60;99.90
19952;DHT22;10137;49.406;19.484;2023-01-15T06:28:30;3.60;99.90
19952;DHT22;10137;49.406;19.484;2023-01-15T06:30:58;3.60;99.90
19952;DHT22;10137;49.406;19.484;2023-01-15T06:33:25;3.60;99.90
19952;DHT22;10137;49.406;19.484;2023-01-15T06:35:52;3.50;99.90
19952;DHT22;10137;49.406;19.484;2023-01-15T06:38:19;3.50;99.90
19952;DHT22;10137;49.406;19.484;2023-01-15T06:40:46;3.50;99.90
19952;DHT22;10137;49.406;19.484;2023-01-15T06:43:13;3.40;99.90
19952;DHT22;10137;49.406;19.484;2023-01-15T06:45:59;3.40;99.90
19952;DHT22;10137;49.406;19.484;2023-01-15T06:48:43;3.50;99.90
19952;DHT22;10137;49.406;19.484;2023-01-15T06:51:12;3.40;99.90
19952;DHT22;10137;49.406;19.484;2023-01-15T06:53:40;3.40;99.90
19952;DHT22;10137;49.406;19.484;2023-01-15T06:56:07;3.40;99.90
19952;DHT22;10137;49.406;19.484;2023-01-15T06:58:34;3.40;99.90
19952;DHT22;10137;49.406;19.484;2023-01-15T07:01:08;3.40;99.90
19952;DHT22;10137;49.406;19.484;2023-01-15T07:03:35;3.40;99.90
19952;DHT22;10137;49.406;19.484;2023-01-15T07:06:05;3.40;99.90
19952;DHT22;10137;49.406;19.484;2023-01-15T07:08:32;3.40;99.90
19952;DHT22;10137;49.406;19.484;2023-01-15T07:11:02;3.40;99.90
19952;DHT22;10137;49.406;19.484;2023-01-15T07:13:29;3.40;99.90
19952;DHT22;10137;49.406;19.484;2023-01-15T07:15:57;3.40;99.90
19952;DHT22;10137;49.406;19.484;2023-01-15T07:18:26;3.40;99.90
19952;DHT22;10137;49.406;19.484;2023-01-15T07:20:54;3.50;99.90
19952;DHT22;10137;49.406;19.484;2023-01-15T07:23:22;3.50;99.90
19952;DHT22;10137;49.406;19.484;2023-01-15T07:25:51;3.50;99.90
19952;DHT22;10137;49.406;19.484;2023-01-15T07:28:18;3.50;99.90
19952;DHT22;10137;49.406;19.484;2023-01-15T07:30:45;3.60;99.90
19952;DHT22;10137;49.406;19.484;2023-01-15T07:33:13;3.60;99.90
19952;DHT22;10137;49.406;19.484;2023-01-15T07:35:41;3.60;99.90
19952;DHT22;10137;49.406;19.484;2023-01-15T07:38:08;3.60;99.90
19952;DHT22;10137;49.406;19.484;2023-01-15T07:40:35;3.60;99.90
19952;DHT22;10137;49.406;19.484;2023-01-15T07:43:03;3.70;99.90
19952;DHT22;10137;49.406;19.484;2023-01-15T07:45:48;3.70;99.90
19952;DHT22;10137;49.406;19.484;2023-01-15T07:48:33;3.80;99.90
19952;DHT22;10137;49.406;19.484;2023-01-15T07:51:19;3.80;99.90
19952;DHT22;10137;49.406;19.484;2023-01-15T07:53:46;3.90;99.90
19952;DHT22;10137;49.406;19.484;2023-01-15T07:56:13;3.90;99.90
19952;DHT22;10137;49.406;19.484;2023-01-15T07:58:40;3.90;99.90
19952;DHT22;10137;49.406;19.484;2023-01-15T08:01:13;4.00;99.90
19952;DHT22;10137;49.406;19.484;2023-01-15T08:03:40;4.00;99.90
19952;DHT22;10137;49.406;19.484;2023-01-15T08:06:07;4.00;99.90
19952;DHT22;10137;49.406;19.484;2023-01-15T08:08:36;3.90;99.90
19952;DHT22;10137;49.406;19.484;2023-01-15T08:11:03;3.90;99.90
19952;DHT22;10137;49.406;19.484;2023-01-15T08:13:47;3.90;99.90
19952;DHT22;10137;49.406;19.484;2023-01-15T08:16:44;3.80;99.90
19952;DHT22;10137;49.406;19.484;2023-01-15T08:19:10;3.90;99.90
19952;DHT22;10137;49.406;19.484;2023-01-15T08:21:38;3.90;99.90
19952;DHT22;10137;49.406;19.484;2023-01-15T08:24:06;3.90;99.90
19952;DHT22;10137;49.406;19.484;2023-01-15T08:26:33;3.80;99.90
19952;DHT22;10137;49.406;19.484;2023-01-15T08:29:00;3.80;99.90
19952;DHT22;10137;49.406;19.484;2023-01-15T08:31:28;3.80;99.90
19952;DHT22;10137;49.406;19.484;2023-01-15T08:33:55;3.80;99.90
19952;DHT22;10137;49.406;19.484;2023-01-15T08:36:22;3.80;99.90
19952;DHT22;10137;49.406;19.484;2023-01-15T08:38:49;3.90;99.90
19952;DHT22;10137;49.406;19.484;2023-01-15T08:41:17;3.90;99.90
19952;DHT22;10137;49.406;19.484;2023-01-15T08:43:44;3.90;99.90
19952;DHT22;10137;49.406;19.484;2023-01-15T08:46:11;3.90;99.90
19952;DHT22;10137;49.406;19.484;2023-01-15T08:48:39;4.00;99.90
19952;DHT22;10137;49.406;19.484;2023-01-15T08:51:07;3.90;99.90
19952;DHT22;10137;49.406;19.484;2023-01-15T08:53:34;3.90;99.90
19952;DHT22;10137;49.406;19.484;2023-01-15T08:56:02;4.00;99.90
19952;DHT22;10137;49.406;19.484;2023-01-15T08:58:32;4.00;99.90
19952;DHT22;10137;49.406;19.484;2023-01-15T09:01:03;4.00;99.90
19952;DHT22;10137;49.406;19.484;2023-01-15T09:03:30;4.10;99.90
19952;DHT22;10137;49.406;19.484;2023-01-15T09:05:58;4.10;99.90
19952;DHT22;10137;49.406;19.484;2023-01-15T09:08:26;4.20;99.90
19952;DHT22;10137;49.406;19.484;2023-01-15T09:10:55;4.20;99.90
19952;DHT22;10137;49.406;19.484;2023-01-15T09:13:22;4.20;99.90
19952;DHT22;10137;49.406;19.484;2023-01-15T09:15:52;4.20;99.90
19952;DHT22;10137;49.406;19.484;2023-01-15T09:18:21;4.30;99.90
19952;DHT22;10137;49.406;19.484;2023-01-15T09:20:48;4.30;99.90
19952;DHT22;10137;49.406;19.484;2023-01-15T09:23:15;4.30;99.90
19952;DHT22;10137;49.406;19.484;2023-01-15T09:25:50;4.40;99.90
19952;DHT22;10137;49.406;19.484;2023-01-15T09:28:17;4.40;99.90
19952;DHT22;10137;49.406;19.484;2023-01-15T09:30:45;4.40;99.90
19952;DHT22;10137;49.406;19.484;2023-01-15T09:33:13;4.40;99.90
19952;DHT22;10137;49.406;19.484;2023-01-15T09:35:41;4.40;99.90
19952;DHT22;10137;49.406;19.484;2023-01-15T09:38:10;4.50;99.90
19952;DHT22;10137;49.406;19.484;2023-01-15T09:40:46;4.40;99.90
19952;DHT22;10137;49.406;19.484;2023-01-15T09:43:26;4.50;99.90
19952;DHT22;10137;49.406;19.484;2023-01-15T09:45:59;4.50;99.90
19952;DHT22;10137;49.406;19.484;2023-01-15T09:48:46;4.50;99.90
19952;DHT22;10137;49.406;19.484;2023-01-15T09:51:20;4.40;99.90
19952;DHT22;10137;49.406;19.484;2023-01-15T09:54:04;4.50;99.90
19952;DHT22;10137;49.406;19.484;2023-01-15T09:56:37;4.50;99.90
19952;DHT22;10137;49.406;19.484;2023-01-15T09:59:08;4.40;99.90
19952;DHT22;10137;49.406;19.484;2023-01-15T10:01:41;4.50;99.90
19952;DHT22;10137;49.406;19.484;2023-01-15T10:04:27;4.40;99.90
19952;DHT22;10137;49.406;19.484;2023-01-15T10:07:02;4.40;99.90
19952;DHT22;10137;49.406;19.484;2023-01-15T10:09:33;4.40;99.90
19952;DHT22;10137;49.406;19.484;2023-01-15T10:12:08;4.40;99.90
19952;DHT22;10137;49.406;19.484;2023-01-15T10:15:04;4.40;99.90
19952;DHT22;10137;49.406;19.484;2023-01-15T10:17:39;4.50;99.90
19952;DHT22;10137;49.406;19.484;2023-01-15T10:20:14;4.40;99.90
19952;DHT22;10137;49.406;19.484;2023-01-15T10:22:59;4.40;99.90
19952;DHT22;10137;49.406;19.484;2023-01-15T10:25:33;4.40;99.90
19952;DHT22;10137;49.406;19.484;2023-01-15T10:28:13;4.40;99.90
19952;DHT22;10137;49.406;19.484;2023-01-15T10:30:44;4.40;99.90
19952;DHT22;10137;49.406;19.484;2023-01-15T10:36:11;4.30;99.90
19952;DHT22;10137;49.406;19.484;2023-01-15T10:38:48;4.40;99.90
19952;DHT22;10137;49.406;19.484;2023-01-15T10:41:30;4.40;99.90
19952;DHT22;10137;49.406;19.484;2023-01-15T10:44:04;4.30;99.90
19952;DHT22;10137;49.406;19.484;2023-01-15T10:46:36;4.40;99.90
19952;DHT22;10137;49.406;19.484;2023-01-15T10:49:11;4.40;99.90
19952;DHT22;10137;49.406;19.484;2023-01-15T10:51:44;4.30;99.90
19952;DHT22;10137;49.406;19.484;2023-01-15T10:54:16;4.30;99.90
19952;DHT22;10137;49.406;19.484;2023-01-15T10:56:50;4.40;99.90
19952;DHT22;10137;49.406;19.484;2023-01-15T10:59:26;4.40;99.90
19952;DHT22;10137;49.406;19.484;2023-01-15T11:01:58;4.40;99.90
19952;DHT22;10137;49.406;19.484;2023-01-15T11:04:30;4.40;99.90
19952;DHT22;10137;49.406;19.484;2023-01-15T11:06:59;4.50;99.90
19952;DHT22;10137;49.406;19.484;2023-01-15T11:09:28;4.40;99.90
19952;DHT22;10137;49.406;19.484;2023-01-15T11:12:10;4.40;99.90
19952;DHT22;10137;49.406;19.484;2023-01-15T11:14:57;4.40;99.90
19952;DHT22;10137;49.406;19.484;2023-01-15T11:17:43;4.40;99.90
19952;DHT22;10137;49.406;19.484;2023-01-15T11:20:29;4.50;99.90
19952;DHT22;10137;49.406;19.484;2023-01-15T11:23:07;4.50;99.90
19952;DHT22;10137;49.406;19.484;2023-01-15T11:25:34;4.50;99.90
19952;DHT22;10137;49.406;19.484;2023-01-15T11:28:05;4.50;99.90
19952;DHT22;10137;49.406;19.484;2023-01-15T11:30:36;4.40;99.90
19952;DHT22;10137;49.406;19.484;2023-01-15T11:33:04;4.40;99.90
19952;DHT22;10137;49.406;19.484;2023-01-15T11:35:32;4.40;99.90
19952;DHT22;10137;49.406;19.484;2023-01-15T11:38:05;4.40;99.90
19952;DHT22;10137;49.406;19.484;2023-01-15T11:40:33;4.40;99.90
19952;DHT22;10137;49.406;19.484;2023-01-15T11:43:00;4.40;99.90
19952;DHT22;10137;49.406;19.484;2023-01-15T11:45:48;4.40;99.90
19952;DHT22;10137;49.406;19.484;2023-01-15T11:48:43;4.30;99.90
19952;DHT22;10137;49.406;19.484;2023-01-15T11:51:30;4.30;99.90
19952;DHT22;10137;49.406;19.484;2023-01-15T11:54:02;4.30;99.90
19952;DHT22;10137;49.406;19.484;2023-01-15T11:56:32;4.40;99.90
19952;DHT22;10137;49.406;19.484;2023-01-15T11:59:01;4.40;99.90
19952;DHT22;10137;49.406;19.484;2023-01-15T12:01:31;4.40;99.90
19952;DHT22;10137;49.406;19.484;2023-01-15T12:04:00;4.40;99.90
19952;DHT22;10137;49.406;19.484;2023-01-15T12:06:29;4.40;99.90
19952;DHT22;10137;49.406;19.484;2023-01-15T12:09:03;4.50;99.90
19952;DHT22;10137;49.406;19.484;2023-01-15T12:11:43;4.50;99.90
19952;DHT22;10137;49.406;19.484;2023-01-15T12:14:36;4.50;99.90
19952;DHT22;10137;49.406;19.484;2023-01-15T12:17:13;4.50;99.90
19952;DHT22;10137;49.406;19.484;2023-01-15T12:19:46;4.60;99.90
19952;DHT22;10137;49.406;19.484;2023-01-15T12:22:35;4.50;99.90
19952;DHT22;10137;49.406;19.484;2023-01-15T12:25:24;4.60;99.90
19952;DHT22;10137;49.406;19.484;2023-01-15T12:27:58;4.60;99.90
19952;DHT22;10137;49.406;19.484;2023-01-15T12:30:32;4.60;99.90
19952;DHT22;10137;49.406;19.484;2023-01-15T12:33:15;4.60;99.90
19952;DHT22;10137;49.406;19.484;2023-01-15T12:35:49;4.60;99.90
19952;DHT22;10137;49.406;19.484;2023-01-15T12:38:27;4.50;99.90
19952;DHT22;10137;49.406;19.484;2023-01-15T12:41:03;4.60;99.90
19952;DHT22;10137;49.406;19.484;2023-01-15T12:43:33;4.60;99.90
19952;DHT22;10137;49.406;19.484;2023-01-15T12:46:23;4.50;99.90
19952;DHT22;10137;49.406;19.484;2023-01-15T12:48:57;4.60;99.90
19952;DHT22;10137;49.406;19.484;2023-01-15T12:51:34;4.60;99.90
19952;DHT22;10137;49.406;19.484;2023-01-15T12:54:07;4.60;99.90
19952;DHT22;10137;49.406;19.484;2023-01-15T12:56:48;4.60;99.90
19952;DHT22;10137;49.406;19.484;2023-01-15T12:59:23;4.60;99.90
19952;DHT22;10137;49.406;19.484;2023-01-15T13:02:01;4.60;99.90
19952;DHT22;10137;49.406;19.484;2023-01-15T13:04:43;4.60;99.90
19952;DHT22;10137;49.406;19.484;2023-01-15T13:07:18;4.60;99.90
19952;DHT22;10137;49.406;19.484;2023-01-15T13:09:51;4.60;99.90
19952;DHT22;10137;49.406;19.484;2023-01-15T13:12:21;4.60;99.90
19952;DHT22;10137;49.406;19.484;2023-01-15T13:14:48;4.60;99.90
19952;DHT22;10137;49.406;19.484;2023-01-15T13:17:22;4.50;99.90
19952;DHT22;10137;49.406;19.484;2023-01-15T13:20:01;4.60;99.90
19952;DHT22;10137;49.406;19.484;2023-01-15T13:22:31;4.60;99.90
19952;DHT22;10137;49.406;19.484;2023-01-15T13:28:25;4.60;99.90
19952;DHT22;10137;49.406;19.484;2023-01-15T13:31:05;4.60;99.90
19952;DHT22;10137;49.406;19.484;2023-01-15T13:33:40;4.60;99.90
19952;DHT22;10137;49.406;19.484;2023-01-15T13:36:12;4.60;99.90
19952;DHT22;10137;49.406;19.484;2023-01-15T13:38:42;4.60;99.90
19952;DHT22;10137;49.406;19.484;2023-01-15T13:41:11;4.60;99.90
19952;DHT22;10137;49.406;19.484;2023-01-15T13:44:03;4.60;99.90
19952;DHT22;10137;49.406;19.484;2023-01-15T13:46:30;4.50;99.90
19952;DHT22;10137;49.406;19.484;2023-01-15T13:48:58;4.50;99.90
19952;DHT22;10137;49.406;19.484;2023-01-15T13:51:27;4.50;99.90
19952;DHT22;10137;49.406;19.484;2023-01-15T13:53:55;4.50;99.90
19952;DHT22;10137;49.406;19.484;2023-01-15T13:56:26;4.50;99.90
19952;DHT22;10137;49.406;19.484;2023-01-15T13:58:55;4.50;99.90
19952;DHT22;10137;49.406;19.484;2023-01-15T14:01:25;4.40;99.90
19952;DHT22;10137;49.406;19.484;2023-01-15T14:04:04;4.50;99.90
19952;DHT22;10137;49.406;19.484;2023-01-15T14:06:37;4.30;99.90
19952;DHT22;10137;49.406;19.484;2023-01-15T14:09:04;4.30;99.90
19952;DHT22;10137;49.406;19.484;2023-01-15T14:11:35;4.20;99.90
19952;DHT22;10137;49.406;19.484;2023-01-15T14:14:20;4.10;99.90
19952;DHT22;10137;49.406;19.484;2023-01-15T14:17:03;4.20;99.90
19952;DHT22;10137;49.406;19.484;2023-01-15T14:19:48;4.20;99.90
19952;DHT22;10137;49.406;19.484;2023-01-15T14:22:43;4.20;99.90
19952;DHT22;10137;49.406;19.484;2023-01-15T14:25:20;4.00;99.90
19952;DHT22;10137;49.406;19.484;2023-01-15T14:31:06;4.00;99.90
19952;DHT22;10137;49.406;19.484;2023-01-15T14:33:50;3.90;99.90
19952;DHT22;10137;49.406;19.484;2023-01-15T14:36:24;3.80;99.90
19952;DHT22;10137;49.406;19.484;2023-01-15T14:38:55;3.90;99.90
19952;DHT22;10137;49.406;19.484;2023-01-15T14:41:26;3.80;99.90
19952;DHT22;10137;49.406;19.484;2023-01-15T14:43:54;3.80;99.90
19952;DHT22;10137;49.406;19.484;2023-01-15T14:46:25;3.80;99.90
19952;DHT22;10137;49.406;19.484;2023-01-15T14:48:56;3.70;99.90
19952;DHT22;10137;49.406;19.484;2023-01-15T14:51:26;3.70;99.90
19952;DHT22;10137;49.406;19.484;2023-01-15T14:53:55;3.70;99.90
19952;DHT22;10137;49.406;19.484;2023-01-15T14:56:27;3.70;99.90
19952;DHT22;10137;49.406;19.484;2023-01-15T14:59:01;3.60;99.90
19952;DHT22;10137;49.406;19.484;2023-01-15T15:01:38;3.50;99.90
19952;DHT22;10137;49.406;19.484;2023-01-15T15:04:19;3.60;99.90
19952;DHT22;10137;49.406;19.484;2023-01-15T15:06:50;3.40;99.90
19952;DHT22;10137;49.406;19.484;2023-01-15T15:09:26;3.40;99.90
19952;DHT22;10137;49.406;19.484;2023-01-15T15:11:58;3.40;99.90
19952;DHT22;10137;49.406;19.484;2023-01-15T15:14:52;3.40;99.90
19952;DHT22;10137;49.406;19.484;2023-01-15T15:17:30;3.30;99.90
19952;DHT22;10137;49.406;19.484;2023-01-15T15:20:10;3.40;99.90
19952;DHT22;10137;49.406;19.484;2023-01-15T15:22:43;3.40;99.90
19952;DHT22;10137;49.406;19.484;2023-01-15T15:25:20;3.40;99.90
19952;DHT22;10137;49.406;19.484;2023-01-15T15:27:48;3.40;99.90
19952;DHT22;10137;49.406;19.484;2023-01-15T15:30:15;3.30;99.90
19952;DHT22;10137;49.406;19.484;2023-01-15T15:32:45;3.40;99.90
19952;DHT22;10137;49.406;19.484;2023-01-15T15:35:24;3.40;99.90
19952;DHT22;10137;49.406;19.484;2023-01-15T15:37:52;3.40;99.90
19952;DHT22;10137;49.406;19.484;2023-01-15T15:40:22;3.50;99.90
19952;DHT22;10137;49.406;19.484;2023-01-15T15:42:53;3.60;99.90
19952;DHT22;10137;49.406;19.484;2023-01-15T15:45:50;3.60;99.90
19952;DHT22;10137;49.406;19.484;2023-01-15T15:48:35;3.60;99.90
19952;DHT22;10137;49.406;19.484;2023-01-15T15:51:27;3.60;99.90
19952;DHT22;10137;49.406;19.484;2023-01-15T15:54:07;3.50;99.90
19952;DHT22;10137;49.406;19.484;2023-01-15T15:56:37;3.50;99.90
19952;DHT22;10137;49.406;19.484;2023-01-15T15:59:05;3.50;99.90
19952;DHT22;10137;49.406;19.484;2023-01-15T16:01:36;3.40;99.90
19952;DHT22;10137;49.406;19.484;2023-01-15T16:04:04;3.40;99.90
19952;DHT22;10137;49.406;19.484;2023-01-15T16:06:32;3.50;99.90
19952;DHT22;10137;49.406;19.484;2023-01-15T16:09:01;3.50;99.90